sensor_id;sensor_type;location;lat;lon;timestamp;temperature;humidity
15906;DHT22;8051;50.820;4.884;2024-03-08T00:01:02;4.30;99.90
15906;DHT22;8051;50.820;4.884;2024-03-08T00:03:30;4.20;99.90
15906;DHT22;8051;50.820;4.884;2024-03-08T00:05:58;4.20;99.90
15906;DHT22;8051;50.820;4.884;2024-03-08T00:08:26;4.20;99.90
15906;DHT22;8051;50.820;4.884;2024-03-08T00:10:53;4.20;99.90
15906;DHT22;8051;50.820;4.884;2024-03-08T00:13:21;4.10;99.90
15906;DHT22;8051;50.820;4.884;2024-03-08T00:15:50;4.10;99.90
15906;DHT22;8051;50.820;4.884;2024-03-08T00:18:19;4.00;99.90
15906;DHT22;8051;50.820;4.884;2024-03-08T00:20:47;4.00;99.90
15906;DHT22;8051;50.820;4.884;2024-03-08T00:23:14;4.00;99.90
15906;DHT22;8051;50.820;4.884;2024-03-08T00:25:42;3.90;99.90
15906;DHT22;8051;50.820;4.884;2024-03-08T00:28:10;3.90;99.90
15906;DHT22;8051;50.820;4.884;2024-03-08T00:30:40;3.90;99.90
15906;DHT22;8051;50.820;4.884;2024-03-08T00:33:08;3.90;99.90
15906;DHT22;8051;50.820;4.884;2024-03-08T00:35:37;3.80;99.90
15906;DHT22;8051;50.820;4.884;2024-03-08T00:38:05;3.80;99.90
15906;DHT22;8051;50.820;4.884;2024-03-08T00:40:33;3.80;99.90
15906;DHT22;8051;50.820;4.884;2024-03-08T00:43:01;3.70;99.90
15906;DHT22;8051;50.820;4.884;2024-03-08T00:45:30;3.70;99.90
15906;DHT22;8051;50.820;4.884;2024-03-08T00:47:57;3.70;99.90
15906;DHT22;8051;50.820;4.884;2024-03-08T00:50:26;3.60;99.90
15906;DHT22;8051;50.820;4.884;2024-03-08T00:52:55;3.60;99.90
15906;DHT22;8051;50.820;4.884;2024-03-08T00:55:23;3.60;99.90
15906;DHT22;8051;50.820;4.884;2024-03-08T00:57:50;3.60;99.90
15906;DHT22;8051;50.820;4.884;2024-03-08T01:00:20;3.60;99.90
15906;DHT22;8051;50.820;4.884;2024-03-08T01:02:48;3.60;99.90
15906;DHT22;8051;50.820;4.884;2024-03-08T01:05:15;3.60;99.90
15906;DHT22;8051;50.820;4.884;2024-03-08T01:07:43;3.60;99.90
15906;DHT22;8051;50.820;4.884;2024-03-08T01:10:13;3.60;99.90
15906;DHT22;8051;50.820;4.884;2024-03-08T01:12:41;3.50;99.90
15906;DHT22;8051;50.820;4.884;2024-03-08T01:15:10;3.50;99.90
15906;DHT22;8051;50.820;4.884;2024-03-08T01:17:37;3.50;99.90
15906;DHT22;8051;50.820;4.884;2024-03-08T01:20:06;3.60;99.90
15906;DHT22;8051;50.820;4.884;2024-03-08T01:22:36;3.50;99.90
15906;DHT22;8051;50.820;4.884;2024-03-08T01:25:05;3.50;99.90
15906;DHT22;8051;50.820;4.884;2024-03-08T01:27:35;3.50;99.90
15906;DHT22;8051;50.820;4.884;2024-03-08T01:30:04;3.50;99.90
15906;DHT22;8051;50.820;4.884;2024-03-08T01:32:32;3.50;99.90
15906;DHT22;8051;50.820;4.884;2024-03-08T01:35:00;3.50;99.90
15906;DHT22;8051;50.820;4.884;2024-03-08T01:37:29;3.50;99.90
15906;DHT22;8051;50.820;4.884;2024-03-08T01:39:56;3.40;99.90
15906;DHT22;8051;50.820;4.884;2024-03-08T01:42:24;3.40;99.90
15906;DHT22;8051;50.820;4.884;2024-03-08T01:44:53;3.40;99.90
15906;DHT22;8051;50.820;4.884;2024-03-08T01:47:22;3.40;99.90
15906;DHT22;8051;50.820;4.884;2024-03-08T01:49:49;3.30;99.90
15906;DHT22;8051;50.820;4.884;2024-03-08T01:52:18;3.30;99.90
15906;DHT22;8051;50.820;4.884;2024-03-08T01:54:48;3.30;99.90
15906;DHT22;8051;50.820;4.884;2024-03-08T01:57:17;3.30;99.90
15906;DHT22;8051;50.820;4.884;2024-03-08T01:59:44;3.30;99.90
15906;DHT22;8051;50.820;4.884;2024-03-08T02:02:15;3.30;99.90
15906;DHT22;8051;50.820;4.884;2024-03-08T02:04:46;3.20;99.90
15906;DHT22;8051;50.820;4.884;2024-03-08T02:07:13;3.20;99.90
15906;DHT22;8051;50.820;4.884;2024-03-08T02:09:41;3.10;99.90
15906;DHT22;8051;50.820;4.884;2024-03-08T02:12:08;3.10;99.90
15906;DHT22;8051;50.820;4.884;2024-03-08T02:14:36;3.10;99.90
15906;DHT22;8051;50.820;4.884;2024-03-08T02:17:04;3.10;99.90
15906;DHT22;8051;50.820;4.884;2024-03-08T02:19:33;3.00;99.90
15906;DHT22;8051;50.820;4.884;2024-03-08T02:22:04;3.00;99.90
15906;DHT22;8051;50.820;4.884;2024-03-08T02:24:32;3.00;99.90
15906;DHT22;8051;50.820;4.884;2024-03-08T02:26:59;3.00;99.90
15906;DHT22;8051;50.820;4.884;2024-03-08T02:29:27;2.90;99.90
15906;DHT22;8051;50.820;4.884;2024-03-08T02:31:55;2.90;99.90
15906;DHT22;8051;50.820;4.884;2024-03-08T02:34:23;2.80;99.90
15906;DHT22;8051;50.820;4.884;2024-03-08T02:36:51;2.80;99.90
15906;DHT22;8051;50.820;4.884;2024-03-08T02:39:20;2.80;99.90
15906;DHT22;8051;50.820;4.884;2024-03-08T02:41:49;2.70;99.90
15906;DHT22;8051;50.820;4.884;2024-03-08T02:44:16;2.70;99.90
15906;DHT22;8051;50.820;4.884;2024-03-08T02:46:44;2.70;99.90
15906;DHT22;8051;50.820;4.884;2024-03-08T02:49:12;2.70;99.90
15906;DHT22;8051;50.820;4.884;2024-03-08T02:51:39;2.70;99.90
15906;DHT22;8051;50.820;4.884;2024-03-08T02:54:07;2.60;99.90
15906;DHT22;8051;50.820;4.884;2024-03-08T02:56:37;2.60;99.90
15906;DHT22;8051;50.820;4.884;2024-03-08T02:59:05;2.60;99.90
15906;DHT22;8051;50.820;4.884;2024-03-08T03:01:33;2.60;99.90
15906;DHT22;8051;50.820;4.884;2024-03-08T03:04:02;2.60;99.90
15906;DHT22;8051;50.820;4.884;2024-03-08T03:06:30;2.60;99.90
15906;DHT22;8051;50.820;4.884;2024-03-08T03:08:57;2.50;99.90
15906;DHT22;8051;50.820;4.884;2024-03-08T03:11:25;2.50;99.90
15906;DHT22;8051;50.820;4.884;2024-03-08T03:13:54;2.50;99.90
15906;DHT22;8051;50.820;4.884;2024-03-08T03:16:22;2.40;99.90
15906;DHT22;8051;50.820;4.884;2024-03-08T03:18:50;2.40;99.90
15906;DHT22;8051;50.820;4.884;2024-03-08T03:21:17;2.40;99.90
15906;DHT22;8051;50.820;4.884;2024-03-08T03:23:45;2.40;99.90
15906;DHT22;8051;50.820;4.884;2024-03-08T03:26:14;2.40;99.90
15906;DHT22;8051;50.820;4.884;2024-03-08T03:28:43;2.40;99.90
15906;DHT22;8051;50.820;4.884;2024-03-08T03:31:12;2.40;99.90
15906;DHT22;8051;50.820;4.884;2024-03-08T03:33:40;2.30;99.90
15906;DHT22;8051;50.820;4.884;2024-03-08T03:36:08;2.30;99.90
15906;DHT22;8051;50.820;4.884;2024-03-08T03:38:37;2.30;99.90
15906;DHT22;8051;50.820;4.884;2024-03-08T03:41:05;2.30;99.90
15906;DHT22;8051;50.820;4.884;2024-03-08T03:43:36;2.30;99.90
15906;DHT22;8051;50.820;4.884;2024-03-08T03:46:06;2.30;99.90
15906;DHT22;8051;50.820;4.884;2024-03-08T03:48:38;2.20;99.90
15906;DHT22;8051;50.820;4.884;2024-03-08T03:51:05;2.20;99.90
15906;DHT22;8051;50.820;4.884;2024-03-08T03:53:33;2.20;99.90
15906;DHT22;8051;50.820;4.884;2024-03-08T03:56:00;2.20;99.90
15906;DHT22;8051;50.820;4.884;2024-03-08T03:58:28;2.20;99.90
15906;DHT22;8051;50.820;4.884;2024-03-08T04:00:56;2.20;99.90
15906;DHT22;8051;50.820;4.884;2024-03-08T04:03:23;2.10;99.90
15906;DHT22;8051;50.820;4.884;2024-03-08T04:05:52;2.10;99.90
15906;DHT22;8051;50.820;4.884;2024-03-08T04:08:20;2.10;99.90
15906;DHT22;8051;50.820;4.884;2024-03-08T04:10:50;2.10;99.90
15906;DHT22;8051;50.820;4.884;2024-03-08T04:13:18;2.10;99.90
15906;DHT22;8051;50.820;4.884;2024-03-08T04:15:46;2.10;99.90
15906;DHT22;8051;50.820;4.884;2024-03-08T04:18:14;2.10;99.90
15906;DHT22;8051;50.820;4.884;2024-03-08T04:20:42;2.10;99.90
15906;DHT22;8051;50.820;4.884;2024-03-08T04:23:11;2.10;99.90
15906;DHT22;8051;50.820;4.884;2024-03-08T04:25:38;2.10;99.90
15906;DHT22;8051;50.820;4.884;2024-03-08T04:28:08;2.10;99.90
15906;DHT22;8051;50.820;4.884;2024-03-08T04:30:37;2.10;99.90
15906;DHT22;8051;50.820;4.884;2024-03-08T04:33:05;2.10;99.90
15906;DHT22;8051;50.820;4.884;2024-03-08T04:35:34;2.00;99.90
15906;DHT22;8051;50.820;4.884;2024-03-08T04:38:02;2.00;99.90
15906;DHT22;8051;50.820;4.884;2024-03-08T04:40:33;1.90;99.90
15906;DHT22;8051;50.820;4.884;2024-03-08T04:43:00;1.90;99.90
15906;DHT22;8051;50.820;4.884;2024-03-08T04:45:28;1.90;99.90
15906;DHT22;8051;50.820;4.884;2024-03-08T04:47:55;1.90;99.90
15906;DHT22;8051;50.820;4.884;2024-03-08T04:50:23;1.90;99.90
15906;DHT22;8051;50.820;4.884;2024-03-08T04:52:51;1.90;99.90
15906;DHT22;8051;50.820;4.884;2024-03-08T04:55:18;1.90;99.90
15906;DHT22;8051;50.820;4.884;2024-03-08T04:57:48;1.90;99.90
15906;DHT22;8051;50.820;4.884;2024-03-08T05:00:17;1.80;99.90
15906;DHT22;8051;50.820;4.884;2024-03-08T05:02:45;1.80;99.90
15906;DHT22;8051;50.820;4.884;2024-03-08T05:05:12;1.80;99.90
15906;DHT22;8051;50.820;4.884;2024-03-08T05:07:41;1.70;99.90
15906;DHT22;8051;50.820;4.884;2024-03-08T05:10:09;1.70;99.90
15906;DHT22;8051;50.820;4.884;2024-03-08T05:12:36;1.60;99.90
15906;DHT22;8051;50.820;4.884;2024-03-08T05:15:07;1.70;99.90
15906;DHT22;8051;50.820;4.884;2024-03-08T05:17:35;1.70;99.90
15906;DHT22;8051;50.820;4.884;2024-03-08T05:20:03;1.60;99.90
15906;DHT22;8051;50.820;4.884;2024-03-08T05:22:34;1.60;99.90
15906;DHT22;8051;50.820;4.884;2024-03-08T05:25:01;1.60;99.90
15906;DHT22;8051;50.820;4.884;2024-03-08T05:27:29;1.60;99.90
15906;DHT22;8051;50.820;4.884;2024-03-08T05:29:57;1.60;99.90
15906;DHT22;8051;50.820;4.884;2024-03-08T05:32:26;1.60;99.90
15906;DHT22;8051;50.820;4.884;2024-03-08T05:34:53;1.50;99.90
15906;DHT22;8051;50.820;4.884;2024-03-08T05:37:21;1.50;99.90
15906;DHT22;8051;50.820;4.884;2024-03-08T05:39:48;1.60;99.90
15906;DHT22;8051;50.820;4.884;2024-03-08T05:42:16;1.60;99.90
15906;DHT22;8051;50.820;4.884;2024-03-08T05:44:44;1.60;99.90
15906;DHT22;8051;50.820;4.884;2024-03-08T05:47:11;1.60;99.90
15906;DHT22;8051;50.820;4.884;2024-03-08T05:49:40;1.60;99.90
15906;DHT22;8051;50.820;4.884;2024-03-08T05:52:10;1.50;99.90
15906;DHT22;8051;50.820;4.884;2024-03-08T05:54:37;1.50;99.90
15906;DHT22;8051;50.820;4.884;2024-03-08T05:57:06;1.50;99.90
15906;DHT22;8051;50.820;4.884;2024-03-08T05:59:34;1.40;99.90
15906;DHT22;8051;50.820;4.884;2024-03-08T06:02:02;1.40;99.90
15906;DHT22;8051;50.820;4.884;2024-03-08T06:04:30;1.40;99.90
15906;DHT22;8051;50.820;4.884;2024-03-08T06:06:59;1.40;99.90
15906;DHT22;8051;50.820;4.884;2024-03-08T06:09:29;1.40;99.90
15906;DHT22;8051;50.820;4.884;2024-03-08T06:11:57;1.40;99.90
15906;DHT22;8051;50.820;4.884;2024-03-08T06:14:23;1.40;99.90
15906;DHT22;8051;50.820;4.884;2024-03-08T06:16:51;1.40;99.90
15906;DHT22;8051;50.820;4.884;2024-03-08T06:19:19;1.50;99.90
15906;DHT22;8051;50.820;4.884;2024-03-08T06:21:46;1.40;99.90
15906;DHT22;8051;50.820;4.884;2024-03-08T06:24:15;1.50;99.90
15906;DHT22;8051;50.820;4.884;2024-03-08T06:26:43;1.40;99.90
15906;DHT22;8051;50.820;4.884;2024-03-08T06:29:11;1.40;99.90
15906;DHT22;8051;50.820;4.884;2024-03-08T06:31:41;1.40;99.90
15906;DHT22;8051;50.820;4.884;2024-03-08T06:34:09;1.40;99.90
15906;DHT22;8051;50.820;4.884;2024-03-08T06:36:37;1.40;99.90
15906;DHT22;8051;50.820;4.884;2024-03-08T06:39:05;1.50;99.90
15906;DHT22;8051;50.820;4.884;2024-03-08T06:41:37;1.50;99.90
15906;DHT22;8051;50.820;4.884;2024-03-08T06:44:04;1.50;99.90
15906;DHT22;8051;50.820;4.884;2024-03-08T06:46:33;1.50;99.90
15906;DHT22;8051;50.820;4.884;2024-03-08T06:49:01;1.50;99.90
15906;DHT22;8051;50.820;4.884;2024-03-08T06:51:29;1.60;99.90
15906;DHT22;8051;50.820;4.884;2024-03-08T06:53:57;1.60;99.90
15906;DHT22;8051;50.820;4.884;2024-03-08T06:56:24;1.70;99.90
15906;DHT22;8051;50.820;4.884;2024-03-08T06:58:53;1.70;99.90
15906;DHT22;8051;50.820;4.884;2024-03-08T07:01:21;1.80;99.90
15906;DHT22;8051;50.820;4.884;2024-03-08T07:03:49;1.80;99.90
15906;DHT22;8051;50.820;4.884;2024-03-08T07:06:18;1.90;99.90
15906;DHT22;8051;50.820;4.884;2024-03-08T07:08:46;2.00;99.90
15906;DHT22;8051;50.820;4.884;2024-03-08T07:11:14;2.00;99.90
15906;DHT22;8051;50.820;4.884;2024-03-08T07:13:44;2.10;99.90
15906;DHT22;8051;50.820;4.884;2024-03-08T07:16:13;2.20;99.90
15906;DHT22;8051;50.820;4.884;2024-03-08T07:18:41;2.20;99.90
15906;DHT22;8051;50.820;4.884;2024-03-08T07:21:10;2.30;99.90
15906;DHT22;8051;50.820;4.884;2024-03-08T07:23:37;2.40;99.90
15906;DHT22;8051;50.820;4.884;2024-03-08T07:26:28;2.40;99.90
15906;DHT22;8051;50.820;4.884;2024-03-08T07:28:56;2.50;99.90
15906;DHT22;8051;50.820;4.884;2024-03-08T07:31:27;2.60;99.90
15906;DHT22;8051;50.820;4.884;2024-03-08T07:34:10;2.70;99.90
15906;DHT22;8051;50.820;4.884;2024-03-08T07:36:38;2.70;99.90
15906;DHT22;8051;50.820;4.884;2024-03-08T07:39:06;2.80;99.90
15906;DHT22;8051;50.820;4.884;2024-03-08T07:41:37;2.90;99.90
15906;DHT22;8051;50.820;4.884;2024-03-08T07:44:06;3.00;99.90
15906;DHT22;8051;50.820;4.884;2024-03-08T07:46:35;3.00;99.90
15906;DHT22;8051;50.820;4.884;2024-03-08T07:49:03;3.10;99.90
15906;DHT22;8051;50.820;4.884;2024-03-08T07:51:30;3.10;99.90
15906;DHT22;8051;50.820;4.884;2024-03-08T07:54:00;3.20;99.90
15906;DHT22;8051;50.820;4.884;2024-03-08T07:56:30;3.30;99.90
15906;DHT22;8051;50.820;4.884;2024-03-08T07:58:57;3.40;99.90
15906;DHT22;8051;50.820;4.884;2024-03-08T08:01:25;3.40;99.90
15906;DHT22;8051;50.820;4.884;2024-03-08T08:03:54;3.50;99.90
15906;DHT22;8051;50.820;4.884;2024-03-08T08:06:22;3.60;99.90
15906;DHT22;8051;50.820;4.884;2024-03-08T08:08:51;3.60;99.90
15906;DHT22;8051;50.820;4.884;2024-03-08T08:11:19;3.70;99.90
15906;DHT22;8051;50.820;4.884;2024-03-08T08:13:46;3.80;99.90
15906;DHT22;8051;50.820;4.884;2024-03-08T08:16:14;3.90;99.90
15906;DHT22;8051;50.820;4.884;2024-03-08T08:18:42;3.90;99.90
15906;DHT22;8051;50.820;4.884;2024-03-08T08:21:13;4.00;99.90
15906;DHT22;8051;50.820;4.884;2024-03-08T08:23:41;4.10;99.90
15906;DHT22;8051;50.820;4.884;2024-03-08T08:26:09;4.20;99.90
15906;DHT22;8051;50.820;4.884;2024-03-08T08:28:37;4.20;99.90
15906;DHT22;8051;50.820;4.884;2024-03-08T08:31:06;4.30;99.90
15906;DHT22;8051;50.820;4.884;2024-03-08T08:33:34;4.40;99.90
15906;DHT22;8051;50.820;4.884;2024-03-08T08:36:03;4.40;99.90
15906;DHT22;8051;50.820;4.884;2024-03-08T08:38:32;4.50;99.90
15906;DHT22;8051;50.820;4.884;2024-03-08T08:40:59;4.60;99.90
15906;DHT22;8051;50.820;4.884;2024-03-08T08:43:28;4.60;99.90
15906;DHT22;8051;50.820;4.884;2024-03-08T08:45:55;4.70;99.90
15906;DHT22;8051;50.820;4.884;2024-03-08T08:48:23;4.70;99.90
15906;DHT22;8051;50.820;4.884;2024-03-08T08:50:51;4.80;99.90
15906;DHT22;8051;50.820;4.884;2024-03-08T08:53:19;4.80;99.90
15906;DHT22;8051;50.820;4.884;2024-03-08T08:55:49;4.90;99.90
15906;DHT22;8051;50.820;4.884;2024-03-08T08:58:16;5.00;99.90
15906;DHT22;8051;50.820;4.884;2024-03-08T09:00:44;5.20;99.90
15906;DHT22;8051;50.820;4.884;2024-03-08T09:03:12;5.30;99.90
15906;DHT22;8051;50.820;4.884;2024-03-08T09:05:40;5.30;99.90
15906;DHT22;8051;50.820;4.884;2024-03-08T09:08:08;5.30;99.90
15906;DHT22;8051;50.820;4.884;2024-03-08T09:10:36;5.40;99.90
15906;DHT22;8051;50.820;4.884;2024-03-08T09:13:06;5.40;99.90
15906;DHT22;8051;50.820;4.884;2024-03-08T09:15:36;5.50;99.90
15906;DHT22;8051;50.820;4.884;2024-03-08T09:18:06;5.60;99.90
15906;DHT22;8051;50.820;4.884;2024-03-08T09:20:34;5.60;99.90
15906;DHT22;8051;50.820;4.884;2024-03-08T09:23:03;5.70;99.90
15906;DHT22;8051;50.820;4.884;2024-03-08T09:25:31;5.80;99.90
15906;DHT22;8051;50.820;4.884;2024-03-08T09:27:58;5.90;99.90
15906;DHT22;8051;50.820;4.884;2024-03-08T09:30:29;6.00;99.90
15906;DHT22;8051;50.820;4.884;2024-03-08T09:32:57;5.90;99.90
15906;DHT22;8051;50.820;4.884;2024-03-08T09:35:24;6.00;99.90
15906;DHT22;8051;50.820;4.884;2024-03-08T09:37:52;6.00;99.90
15906;DHT22;8051;50.820;4.884;2024-03-08T09:40:20;6.10;99.90
15906;DHT22;8051;50.820;4.884;2024-03-08T09:42:50;6.20;99.90
15906;DHT22;8051;50.820;4.884;2024-03-08T09:45:20;6.20;99.90
15906;DHT22;8051;50.820;4.884;2024-03-08T09:47:51;6.30;99.90
15906;DHT22;8051;50.820;4.884;2024-03-08T09:50:20;6.30;99.90
15906;DHT22;8051;50.820;4.884;2024-03-08T09:52:49;6.30;99.90
15906;DHT22;8051;50.820;4.884;2024-03-08T09:55:17;6.40;99.90
15906;DHT22;8051;50.820;4.884;2024-03-08T09:57:48;6.40;99.90
15906;DHT22;8051;50.820;4.884;2024-03-08T10:00:29;6.50;99.90
15906;DHT22;8051;50.820;4.884;2024-03-08T10:03:02;6.60;99.90
15906;DHT22;8051;50.820;4.884;2024-03-08T10:05:31;6.80;99.90
15906;DHT22;8051;50.820;4.884;2024-03-08T10:07:59;6.90;99.90
15906;DHT22;8051;50.820;4.884;2024-03-08T10:10:27;6.80;99.90
15906;DHT22;8051;50.820;4.884;2024-03-08T10:12:55;6.90;99.90
15906;DHT22;8051;50.820;4.884;2024-03-08T10:15:23;6.90;99.90
15906;DHT22;8051;50.820;4.884;2024-03-08T10:17:51;6.90;99.90
15906;DHT22;8051;50.820;4.884;2024-03-08T10:20:20;7.00;99.90
15906;DHT22;8051;50.820;4.884;2024-03-08T10:22:50;7.10;99.90
15906;DHT22;8051;50.820;4.884;2024-03-08T10:25:17;7.20;99.90
15906;DHT22;8051;50.820;4.884;2024-03-08T10:27:45;7.40;99.90
15906;DHT22;8051;50.820;4.884;2024-03-08T10:30:15;7.40;99.90
15906;DHT22;8051;50.820;4.884;2024-03-08T10:32:46;7.50;99.90
15906;DHT22;8051;50.820;4.884;2024-03-08T10:35:13;7.50;99.90
15906;DHT22;8051;50.820;4.884;2024-03-08T10:37:46;7.60;99.90
15906;DHT22;8051;50.820;4.884;2024-03-08T10:40:16;7.50;99.90
15906;DHT22;8051;50.820;4.884;2024-03-08T10:42:51;7.60;99.90
15906;DHT22;8051;50.820;4.884;2024-03-08T10:45:30;7.60;99.90
15906;DHT22;8051;50.820;4.884;2024-03-08T10:48:20;7.70;99.90
15906;DHT22;8051;50.820;4.884;2024-03-08T10:50:54;7.80;99.90
15906;DHT22;8051;50.820;4.884;2024-03-08T10:53:27;7.80;99.90
15906;DHT22;8051;50.820;4.884;2024-03-08T10:55:56;7.80;99.90
15906;DHT22;8051;50.820;4.884;2024-03-08T10:58:25;7.80;99.90
15906;DHT22;8051;50.820;4.884;2024-03-08T11:00:54;7.90;99.90
15906;DHT22;8051;50.820;4.884;2024-03-08T11:03:44;8.00;99.90
15906;DHT22;8051;50.820;4.884;2024-03-08T11:06:15;8.10;99.90
15906;DHT22;8051;50.820;4.884;2024-03-08T11:08:44;8.10;99.90
15906;DHT22;8051;50.820;4.884;2024-03-08T11:11:26;8.10;99.90
15906;DHT22;8051;50.820;4.884;2024-03-08T11:14:00;8.30;99.90
15906;DHT22;8051;50.820;4.884;2024-03-08T11:16:39;8.30;99.90
15906;DHT22;8051;50.820;4.884;2024-03-08T11:19:24;8.40;99.90
15906;DHT22;8051;50.820;4.884;2024-03-08T11:22:03;8.60;99.90
15906;DHT22;8051;50.820;4.884;2024-03-08T11:24:39;8.70;99.90
15906;DHT22;8051;50.820;4.884;2024-03-08T11:27:08;8.70;99.90
15906;DHT22;8051;50.820;4.884;2024-03-08T11:29:38;8.70;99.90
15906;DHT22;8051;50.820;4.884;2024-03-08T11:32:10;8.80;99.90
15906;DHT22;8051;50.820;4.884;2024-03-08T11:34:39;8.90;99.90
15906;DHT22;8051;50.820;4.884;2024-03-08T11:37:12;9.00;99.90
15906;DHT22;8051;50.820;4.884;2024-03-08T11:39:47;9.00;99.90
15906;DHT22;8051;50.820;4.884;2024-03-08T11:42:15;9.10;99.90
15906;DHT22;8051;50.820;4.884;2024-03-08T11:44:44;9.20;99.90
15906;DHT22;8051;50.820;4.884;2024-03-08T11:47:12;9.20;99.90
15906;DHT22;8051;50.820;4.884;2024-03-08T11:49:40;9.30;99.90
15906;DHT22;8051;50.820;4.884;2024-03-08T11:52:11;9.40;99.90
15906;DHT22;8051;50.820;4.884;2024-03-08T11:54:41;9.40;99.90
15906;DHT22;8051;50.820;4.884;2024-03-08T11:57:10;9.50;99.90
15906;DHT22;8051;50.820;4.884;2024-03-08T11:59:38;9.60;99.90
15906;DHT22;8051;50.820;4.884;2024-03-08T12:02:07;9.70;99.90
15906;DHT22;8051;50.820;4.884;2024-03-08T12:04:36;9.70;99.90
15906;DHT22;8051;50.820;4.884;2024-03-08T12:07:04;9.80;99.90
15906;DHT22;8051;50.820;4.884;2024-03-08T12:09:36;9.80;99.90
15906;DHT22;8051;50.820;4.884;2024-03-08T12:12:07;9.90;99.90
15906;DHT22;8051;50.820;4.884;2024-03-08T12:14:34;9.90;99.90
15906;DHT22;8051;50.820;4.884;2024-03-08T12:17:03;9.90;99.90
15906;DHT22;8051;50.820;4.884;2024-03-08T12:19:31;10.00;99.90
15906;DHT22;8051;50.820;4.884;2024-03-08T12:22:08;10.10;99.90
15906;DHT22;8051;50.820;4.884;2024-03-08T12:24:37;10.10;99.90
15906;DHT22;8051;50.820;4.884;2024-03-08T12:27:19;10.10;99.90
15906;DHT22;8051;50.820;4.884;2024-03-08T12:29:47;10.10;99.90
15906;DHT22;8051;50.820;4.884;2024-03-08T12:32:16;10.20;99.90
15906;DHT22;8051;50.820;4.884;2024-03-08T12:34:43;10.30;99.90
15906;DHT22;8051;50.820;4.884;2024-03-08T12:37:19;10.40;99.90
15906;DHT22;8051;50.820;4.884;2024-03-08T12:39:46;10.50;99.90
15906;DHT22;8051;50.820;4.884;2024-03-08T12:42:14;10.50;99.90
15906;DHT22;8051;50.820;4.884;2024-03-08T12:44:45;10.50;99.90
15906;DHT22;8051;50.820;4.884;2024-03-08T12:47:12;10.60;99.90
15906;DHT22;8051;50.820;4.884;2024-03-08T12:49:40;10.60;99.90
15906;DHT22;8051;50.820;4.884;2024-03-08T12:52:10;10.70;99.90
15906;DHT22;8051;50.820;4.884;2024-03-08T12:54:38;10.70;99.90
15906;DHT22;8051;50.820;4.884;2024-03-08T12:57:06;10.70;99.90
15906;DHT22;8051;50.820;4.884;2024-03-08T12:59:33;10.90;99.90
15906;DHT22;8051;50.820;4.884;2024-03-08T13:02:02;10.90;99.90
15906;DHT22;8051;50.820;4.884;2024-03-08T13:04:31;11.00;99.90
15906;DHT22;8051;50.820;4.884;2024-03-08T13:06:59;11.20;99.90
15906;DHT22;8051;50.820;4.884;2024-03-08T13:09:27;11.20;99.90
15906;DHT22;8051;50.820;4.884;2024-03-08T13:11:55;11.30;99.90
15906;DHT22;8051;50.820;4.884;2024-03-08T13:14:24;11.30;99.90
15906;DHT22;8051;50.820;4.884;2024-03-08T13:16:52;11.30;99.90
15906;DHT22;8051;50.820;4.884;2024-03-08T13:19:22;11.50;99.90
15906;DHT22;8051;50.820;4.884;2024-03-08T13:21:49;11.60;99.90
15906;DHT22;8051;50.820;4.884;2024-03-08T13:24:17;11.50;99.90
15906;DHT22;8051;50.820;4.884;2024-03-08T13:26:45;11.60;99.90
15906;DHT22;8051;50.820;4.884;2024-03-08T13:29:13;11.60;99.90
15906;DHT22;8051;50.820;4.884;2024-03-08T13:31:41;11.70;99.90
15906;DHT22;8051;50.820;4.884;2024-03-08T13:34:09;11.80;99.90
15906;DHT22;8051;50.820;4.884;2024-03-08T13:36:38;11.90;99.90
15906;DHT22;8051;50.820;4.884;2024-03-08T13:39:10;12.00;99.90
15906;DHT22;8051;50.820;4.884;2024-03-08T13:41:41;12.00;99.90
15906;DHT22;8051;50.820;4.884;2024-03-08T13:44:08;12.10;99.90
15906;DHT22;8051;50.820;4.884;2024-03-08T13:46:36;12.10;99.90
15906;DHT22;8051;50.820;4.884;2024-03-08T13:49:05;12.00;99.90
15906;DHT22;8051;50.820;4.884;2024-03-08T13:51:34;12.20;99.90
15906;DHT22;8051;50.820;4.884;2024-03-08T13:54:03;12.10;99.90
15906;DHT22;8051;50.820;4.884;2024-03-08T13:56:32;12.20;99.90
15906;DHT22;8051;50.820;4.884;2024-03-08T13:59:00;12.40;99.90
15906;DHT22;8051;50.820;4.884;2024-03-08T14:01:28;12.40;99.90
15906;DHT22;8051;50.820;4.884;2024-03-08T14:03:56;12.40;99.90
15906;DHT22;8051;50.820;4.884;2024-03-08T14:06:23;12.40;99.90
15906;DHT22;8051;50.820;4.884;2024-03-08T14:08:51;12.40;99.90
15906;DHT22;8051;50.820;4.884;2024-03-08T14:11:24;12.30;99.90
15906;DHT22;8051;50.820;4.884;2024-03-08T14:13:51;12.40;99.90
15906;DHT22;8051;50.820;4.884;2024-03-08T14:16:19;12.40;99.90
15906;DHT22;8051;50.820;4.884;2024-03-08T14:18:47;12.40;99.90
15906;DHT22;8051;50.820;4.884;2024-03-08T14:21:14;12.50;99.90
15906;DHT22;8051;50.820;4.884;2024-03-08T14:23:43;12.50;99.90
15906;DHT22;8051;50.820;4.884;2024-03-08T14:26:10;12.50;99.90
15906;DHT22;8051;50.820;4.884;2024-03-08T14:28:39;12.50;99.90
15906;DHT22;8051;50.820;4.884;2024-03-08T14:31:07;12.40;99.90
15906;DHT22;8051;50.820;4.884;2024-03-08T14:33:37;12.40;99.90
15906;DHT22;8051;50.820;4.884;2024-03-08T14:36:05;12.40;99.90
15906;DHT22;8051;50.820;4.884;2024-03-08T14:38:33;12.50;99.90
15906;DHT22;8051;50.820;4.884;2024-03-08T14:41:04;12.40;99.90
15906;DHT22;8051;50.820;4.884;2024-03-08T14:43:33;12.40;99.90
15906;DHT22;8051;50.820;4.884;2024-03-08T14:46:02;12.40;99.90
15906;DHT22;8051;50.820;4.884;2024-03-08T14:48:30;12.60;99.90
15906;DHT22;8051;50.820;4.884;2024-03-08T14:50:58;12.60;99.90
15906;DHT22;8051;50.820;4.884;2024-03-08T14:53:26;12.60;99.90
15906;DHT22;8051;50.820;4.884;2024-03-08T14:55:53;12.50;99.90
15906;DHT22;8051;50.820;4.884;2024-03-08T14:58:21;12.50;99.90
15906;DHT22;8051;50.820;4.884;2024-03-08T15:00:50;12.40;99.90
15906;DHT22;8051;50.820;4.884;2024-03-08T15:03:22;12.30;99.90
15906;DHT22;8051;50.820;4.884;2024-03-08T15:05:52;12.40;99.90
15906;DHT22;8051;50.820;4.884;2024-03-08T15:08:20;12.30;99.90
15906;DHT22;8051;50.820;4.884;2024-03-08T15:10:50;12.30;99.90
15906;DHT22;8051;50.820;4.884;2024-03-08T15:13:20;12.40;99.90
15906;DHT22;8051;50.820;4.884;2024-03-08T15:15:53;12.40;99.90
15906;DHT22;8051;50.820;4.884;2024-03-08T15:18:24;12.40;99.90
15906;DHT22;8051;50.820;4.884;2024-03-08T15:20:58;12.40;99.90
15906;DHT22;8051;50.820;4.884;2024-03-08T15:23:25;12.40;99.90
15906;DHT22;8051;50.820;4.884;2024-03-08T15:25:53;12.30;99.90
15906;DHT22;8051;50.820;4.884;2024-03-08T15:28:21;12.30;99.90
15906;DHT22;8051;50.820;4.884;2024-03-08T15:30:56;12.30;99.90
15906;DHT22;8051;50.820;4.884;2024-03-08T15:33:32;12.30;99.90
15906;DHT22;8051;50.820;4.884;2024-03-08T15:36:00;12.30;99.90
15906;DHT22;8051;50.820;4.884;2024-03-08T15:38:33;12.20;99.90
15906;DHT22;8051;50.820;4.884;2024-03-08T15:41:01;12.10;99.90
15906;DHT22;8051;50.820;4.884;2024-03-08T15:43:33;12.10;99.90
15906;DHT22;8051;50.820;4.884;2024-03-08T15:46:03;12.00;99.90
15906;DHT22;8051;50.820;4.884;2024-03-08T15:48:34;12.00;99.90
15906;DHT22;8051;50.820;4.884;2024-03-08T15:51:03;12.00;99.90
15906;DHT22;8051;50.820;4.884;2024-03-08T15:53:32;12.00;99.90
15906;DHT22;8051;50.820;4.884;2024-03-08T15:56:01;12.00;99.90
15906;DHT22;8051;50.820;4.884;2024-03-08T15:58:32;12.00;99.90
15906;DHT22;8051;50.820;4.884;2024-03-08T16:01:01;12.00;99.90
15906;DHT22;8051;50.820;4.884;2024-03-08T16:03:33;12.00;99.90
15906;DHT22;8051;50.820;4.884;2024-03-08T16:06:02;12.00;99.90
15906;DHT22;8051;50.820;4.884;2024-03-08T16:08:32;11.90;99.90